Time;durP1;ratioP1;P1;durP2;ratioP2;P2;SDS_P1;SDS_P2;PMS_P1;PMS_P2;Temp;Humidity;BMP_temperature;BMP_pressure;BME280_temperature;BME280_humidity;BME280_pressure;Samples;Min_cycle;Max_cycle;Signal;HPM_P1;HPM_P2
2021/10/19 00:01:53;;;;;;;14.00;10.75;;;;;;;17.19;90.96;101459.63;5064231;28;20057;-58
2021/10/19 00:04:23;;;;;;;15.65;11.70;;;;;;;17.15;90.96;101461.47;5064599;28;20045;-59
2021/10/19 00:06:50;;;;;;;14.93;11.80;;;;;;;17.31;90.86;101460.47;5055401;28;20076;-59
2021/10/19 00:09:18;;;;;;;15.32;11.07;;;;;;;17.32;89.99;101455.75;5053121;28;20045;-58
2021/10/19 00:11:45;;;;;;;15.68;11.57;;;;;;;17.26;90.10;101460.69;5054461;28;20053;-59
2021/10/19 00:14:13;;;;;;;12.75;11.25;;;;;;;17.51;89.49;101453.31;5054646;28;20052;-59
2021/10/19 00:16:40;;;;;;;15.77;10.55;;;;;;;17.48;89.01;101457.59;5069810;28;20048;-60
2021/10/19 00:19:07;;;;;;;13.57;9.75;;;;;;;17.52;88.35;101460.53;5054328;28;20041;-62
2021/10/19 00:21:35;;;;;;;12.57;9.30;;;;;;;17.35;88.42;101455.88;5053045;28;20534;-60
2021/10/19 00:24:02;;;;;;;13.13;9.60;;;;;;;17.53;88.84;101454.59;5054852;28;20056;-59
2021/10/19 00:26:29;;;;;;;15.20;9.93;;;;;;;17.35;89.14;101444.72;5054400;28;20052;-59
2021/10/19 00:28:57;;;;;;;12.05;9.32;;;;;;;17.36;89.29;101456.69;5053130;28;20053;-59
2021/10/19 00:31:24;;;;;;;12.98;8.45;;;;;;;17.39;88.39;101450.44;5053756;28;20056;-58
2021/10/19 00:33:53;;;;;;;13.02;8.43;;;;;;;17.45;88.24;101449.09;5054896;28;20056;-59
2021/10/19 00:36:20;;;;;;;10.98;7.50;;;;;;;17.56;87.70;101447.50;5053247;28;20056;-59
2021/10/19 00:38:48;;;;;;;11.82;8.02;;;;;;;17.72;86.64;101445.72;5056364;28;20052;-61
2021/10/19 00:41:15;;;;;;;9.25;6.82;;;;;;;17.69;85.97;101446.41;5058746;28;20060;-61
2021/10/19 00:43:43;;;;;;;10.38;6.90;;;;;;;17.81;85.68;101443.66;5054374;28;20053;-61
2021/10/19 00:46:14;;;;;;;11.65;6.80;;;;;;;17.85;85.42;101448.19;5054189;28;20056;-61
2021/10/19 00:48:42;;;;;;;10.75;6.70;;;;;;;17.85;84.77;101448.19;5054035;28;20071;-61
2021/10/19 00:51:10;;;;;;;11.02;7.15;;;;;;;17.93;84.87;101441.72;5054489;28;20053;-62
2021/10/19 00:53:37;;;;;;;10.63;6.95;;;;;;;17.72;85.20;101448.50;5048739;28;20061;-61
2021/10/19 00:56:09;;;;;;;9.45;7.10;;;;;;;17.55;86.91;101441.16;5053707;28;20055;-59
2021/10/19 00:58:37;;;;;;;10.35;7.18;;;;;;;17.82;85.49;101450.84;5054083;28;20053;-59
2021/10/19 01:01:05;;;;;;;9.50;6.93;;;;;;;17.78;85.45;101461.88;5053724;28;20052;-59
2021/10/19 01:03:33;;;;;;;9.50;6.95;;;;;;;17.84;85.13;101459.69;5053089;28;20045;-60
2021/10/19 01:06:02;;;;;;;13.98;7.55;;;;;;;17.82;85.01;101457.25;5055097;28;20064;-59
2021/10/19 01:08:30;;;;;;;10.30;7.43;;;;;;;17.84;85.28;101457.72;5052706;28;20049;-57
2021/10/19 01:10:57;;;;;;;10.35;6.45;;;;;;;17.77;85.20;101459.44;5039224;28;20071;-58
2021/10/19 01:13:25;;;;;;;8.77;6.50;;;;;;;17.68;85.68;101461.50;5058544;28;20057;-60
2021/10/19 01:16:03;;;;;;;13.63;7.35;;;;;;;17.80;84.56;101462.34;5056213;28;20048;-56
2021/10/19 01:18:30;;;;;;;13.07;7.45;;;;;;;17.85;84.05;101470.50;5055921;28;20064;-58
2021/10/19 01:20:57;;;;;;;11.27;6.47;;;;;;;17.85;84.82;101476.06;5057344;28;20045;-58
2021/10/19 01:23:25;;;;;;;8.45;5.63;;;;;;;18.17;83.61;101468.00;5056387;28;20061;-58
2021/10/19 01:25:53;;;;;;;9.50;6.28;;;;;;;18.20;82.20;101467.34;5057283;28;20078;-59
2021/10/19 01:28:20;;;;;;;10.93;6.70;;;;;;;18.03;82.70;101461.97;5056034;28;20041;-58
2021/10/19 01:30:49;;;;;;;9.43;6.30;;;;;;;17.95;83.31;101464.50;5055434;28;20128;-57
2021/10/19 01:33:17;;;;;;;8.20;6.22;;;;;;;18.07;83.05;101455.34;5057661;28;20041;-58
2021/10/19 01:35:46;;;;;;;10.20;6.13;;;;;;;17.91;83.50;101454.38;5057443;28;20049;-60
2021/10/19 01:38:18;;;;;;;8.63;5.85;;;;;;;17.89;83.97;101453.91;5057262;28;20052;-58
2021/10/19 01:40:46;;;;;;;11.20;6.75;;;;;;;17.77;84.19;101459.44;5063058;28;20049;-59
2021/10/19 01:43:16;;;;;;;11.55;6.65;;;;;;;17.87;84.53;101448.66;5057293;28;20056;-59
2021/10/19 01:45:47;;;;;;;10.73;6.30;;;;;;;17.90;83.79;101450.75;5057161;28;20061;-58
2021/10/19 01:48:15;;;;;;;9.00;5.78;;;;;;;18.12;83.13;101455.13;5062676;28;20144;-59
2021/10/19 01:50:43;;;;;;;11.15;6.72;;;;;;;17.95;83.31;101452.53;5057106;28;20037;-61
2021/10/19 01:53:11;;;;;;;8.88;6.18;;;;;;;18.07;83.13;101458.13;5056934;28;20056;-57
2021/10/19 01:55:39;;;;;;;9.18;6.40;;;;;;;18.10;82.59;101462.22;5058015;28;20061;-61
2021/10/19 01:58:07;;;;;;;9.32;6.45;;;;;;;18.47;81.77;101463.88;5056763;28;20056;-56
2021/10/19 02:00:35;;;;;;;9.82;6.82;;;;;;;18.37;81.65;101456.78;5056587;28;20056;-58
2021/10/19 02:03:08;;;;;;;8.82;7.00;;;;;;;18.24;81.72;101462.66;5056946;28;20049;-59
2021/10/19 02:05:36;;;;;;;9.98;6.28;;;;;;;18.27;81.90;101457.22;5056697;28;20049;-57
2021/10/19 02:08:04;;;;;;;13.55;7.03;;;;;;;18.24;82.07;101457.09;5056750;28;20052;-58
2021/10/19 02:10:33;;;;;;;10.32;6.50;;;;;;;18.13;83.01;101453.97;5056493;28;20049;-56
2021/10/19 02:13:02;;;;;;;11.40;7.03;;;;;;;18.12;82.79;101448.72;5055501;28;20496;-58
2021/10/19 02:15:31;;;;;;;10.20;6.77;;;;;;;18.05;82.91;101449.28;5056684;28;20075;-60
2021/10/19 02:17:59;;;;;;;11.40;7.20;;;;;;;17.90;83.07;101441.59;5056752;28;20053;-60
2021/10/19 02:20:27;;;;;;;10.82;6.97;;;;;;;17.76;84.04;101450.28;5055832;28;20056;-59
2021/10/19 02:22:54;;;;;;;10.55;6.57;;;;;;;17.95;83.41;101447.78;5057062;28;20052;-59
2021/10/19 02:25:22;;;;;;;9.18;6.18;;;;;;;18.29;82.26;101442.94;5056489;28;20048;-60
2021/10/19 02:27:49;;;;;;;12.85;6.82;;;;;;;18.36;81.30;101438.41;5054672;28;20049;-59
2021/10/19 02:30:17;;;;;;;11.48;6.45;;;;;;;18.08;81.96;101440.22;5055910;28;20049;-60
2021/10/19 02:32:45;;;;;;;12.32;6.88;;;;;;;18.15;82.26;101443.25;5056507;28;20056;-57
2021/10/19 02:35:15;;;;;;;12.77;7.22;;;;;;;18.14;81.84;101443.59;5056701;28;20127;-57
2021/10/19 02:37:44;;;;;;;10.65;7.00;;;;;;;18.05;82.38;101442.88;5054887;28;20045;-60
2021/10/19 02:40:12;;;;;;;13.18;7.43;;;;;;;18.00;82.99;101443.94;5070292;28;20052;-57
2021/10/19 02:42:40;;;;;;;13.55;6.82;;;;;;;18.19;82.19;101441.41;5057605;28;20408;-58
2021/10/19 02:45:08;;;;;;;11.50;6.75;;;;;;;18.29;81.11;101434.56;5056235;28;20060;-59
2021/10/19 02:47:36;;;;;;;11.50;6.90;;;;;;;18.30;81.32;101437.03;5056065;28;20052;-57
2021/10/19 02:50:04;;;;;;;11.63;7.25;;;;;;;18.14;82.25;101432.44;5055693;28;20060;-58
2021/10/19 02:52:31;;;;;;;11.75;7.13;;;;;;;18.05;82.39;101437.31;5055599;28;20049;-59
2021/10/19 02:54:58;;;;;;;13.60;7.10;;;;;;;17.91;83.64;101438.47;5055329;28;20053;-59
2021/10/19 02:57:25;;;;;;;16.05;7.25;;;;;;;18.22;82.36;101440.72;5055893;28;20053;-59
2021/10/19 02:59:53;;;;;;;13.73;7.25;;;;;;;18.01;82.64;101442.75;5055634;28;20048;-58
2021/10/19 03:02:20;;;;;;;12.55;6.88;;;;;;;17.89;83.90;101446.34;5060394;28;20053;-58
2021/10/19 03:04:48;;;;;;;10.38;7.28;;;;;;;17.94;84.09;101442.53;5059246;28;20052;-59
2021/10/19 03:07:15;;;;;;;12.30;7.20;;;;;;;18.08;83.44;101445.00;5055682;28;20057;-60
2021/10/19 03:09:42;;;;;;;12.82;7.40;;;;;;;17.90;84.21;101447.19;5055757;28;20059;-59
2021/10/19 03:12:09;;;;;;;11.93;7.32;;;;;;;17.98;84.10;101444.28;5055545;28;20057;-61
2021/10/19 03:14:37;;;;;;;15.23;7.72;;;;;;;18.65;80.87;101451.34;5055587;28;20055;-59
2021/10/19 03:17:04;;;;;;;11.50;7.55;;;;;;;18.41;81.28;101449.34;5055443;28;20058;-58
2021/10/19 03:19:31;;;;;;;15.32;7.60;;;;;;;18.13;82.79;101442.81;5055779;28;20052;-59
2021/10/19 03:21:58;;;;;;;11.40;7.00;;;;;;;18.02;83.98;101443.59;5055469;28;20048;-60
2021/10/19 03:24:25;;;;;;;14.38;7.40;;;;;;;18.02;84.23;101438.84;5055328;28;20068;-59
2021/10/19 03:26:53;;;;;;;10.07;6.78;;;;;;;17.85;85.57;101448.19;5055252;28;20044;-58
2021/10/19 03:29:21;;;;;;;14.43;7.65;;;;;;;17.90;85.27;101442.41;5054019;28;20053;-59
2021/10/19 03:31:49;;;;;;;12.05;6.95;;;;;;;17.87;86.07;101443.09;5055070;28;20067;-58
2021/10/19 03:34:16;;;;;;;14.80;7.20;;;;;;;17.93;86.01;101436.16;5053454;28;20063;-60
2021/10/19 03:36:43;;;;;;;16.33;7.35;;;;;;;18.12;85.44;101438.38;5054288;28;20052;-58
2021/10/19 03:39:11;;;;;;;12.07;6.95;;;;;;;18.11;84.36;101447.09;5061460;28;20380;-58
2021/10/19 03:41:38;;;;;;;14.40;7.32;;;;;;;18.01;85.40;101453.91;5065187;28;20048;-58
2021/10/19 03:44:05;;;;;;;15.05;7.60;;;;;;;18.03;84.71;101454.41;5055213;28;20060;-57
2021/10/19 03:46:33;;;;;;;12.32;7.28;;;;;;;18.23;83.92;101461.06;5055067;28;20045;-58
2021/10/19 03:49:00;;;;;;;11.32;7.28;;;;;;;18.25;84.24;101453.97;5055693;28;20053;-59
2021/10/19 03:51:27;;;;;;;11.55;6.97;;;;;;;18.30;83.73;101464.09;5052760;28;20060;-61
2021/10/19 03:53:55;;;;;;;14.05;7.43;;;;;;;18.35;83.37;101458.28;5054995;28;20057;-60
2021/10/19 03:56:22;;;;;;;14.05;7.47;;;;;;;18.42;82.80;101464.13;5054759;28;20057;-59
2021/10/19 03:58:49;;;;;;;12.52;6.60;;;;;;;18.24;83.00;101466.28;5054777;28;20045;-59
2021/10/19 04:01:21;;;;;;;15.30;7.30;;;;;;;18.20;83.42;101456.19;5054638;28;20045;-60
2021/10/19 04:03:49;;;;;;;12.07;6.82;;;;;;;18.27;83.31;101464.78;5054791;28;20044;-60
2021/10/19 04:06:17;;;;;;;14.88;7.47;;;;;;;18.38;82.59;101463.16;5054798;28;20048;-59
2021/10/19 04:08:44;;;;;;;11.55;7.10;;;;;;;18.12;83.85;101465.44;5054768;28;20068;-59
2021/10/19 04:11:11;;;;;;;14.35;6.80;;;;;;;18.08;83.99;101468.09;5054319;28;20045;-61
2021/10/19 04:13:39;;;;;;;12.65;7.63;;;;;;;18.05;84.50;101459.63;5054713;28;20049;-60
2021/10/19 04:16:07;;;;;;;13.00;6.78;;;;;;;18.12;83.89;101460.69;5054356;28;20048;-61
2021/10/19 04:18:34;;;;;;;11.38;6.82;;;;;;;18.22;83.92;101473.38;5054546;28;20055;-59
2021/10/19 04:21:01;;;;;;;11.55;6.75;;;;;;;18.85;80.11;101478.28;5054415;28;20354;-61
2021/10/19 04:23:29;;;;;;;15.65;7.20;;;;;;;18.73;80.41;101469.94;5054759;28;20057;-59
2021/10/19 04:25:56;;;;;;;13.25;7.22;;;;;;;18.26;82.41;101477.09;5052044;28;20450;-61
2021/10/19 04:28:23;;;;;;;13.65;7.15;;;;;;;18.30;83.14;101475.25;5053435;28;20049;-60
2021/10/19 04:30:51;;;;;;;11.63;6.78;;;;;;;18.24;83.26;101466.28;5054368;28;20049;-61
2021/10/19 04:33:18;;;;;;;11.05;6.65;;;;;;;18.29;83.19;101476.41;5054695;28;20408;-58
2021/10/19 04:35:46;;;;;;;11.65;6.75;;;;;;;18.37;82.74;101472.69;5054659;28;20504;-59
2021/10/19 04:38:14;;;;;;;16.13;7.38;;;;;;;18.10;84.13;101487.31;5054741;28;20048;-60
2021/10/19 04:40:41;;;;;;;14.80;7.38;;;;;;;18.18;84.11;101481.63;5073199;28;20041;-60
2021/10/19 04:43:09;;;;;;;14.73;7.60;;;;;;;18.24;83.85;101473.81;5074555;28;20049;-58
2021/10/19 04:45:36;;;;;;;13.23;7.47;;;;;;;18.17;84.06;101479.16;5066393;28;20060;-60
2021/10/19 04:48:04;;;;;;;11.30;7.47;;;;;;;18.32;83.89;101475.72;5056940;28;20079;-64
2021/10/19 04:50:34;;;;;;;13.18;7.32;;;;;;;18.46;82.90;101473.44;5057284;28;20429;-62
2021/10/19 04:53:01;;;;;;;14.50;7.72;;;;;;;18.33;82.63;101482.91;5057398;28;20044;-60
2021/10/19 04:55:29;;;;;;;13.57;7.60;;;;;;;18.17;83.62;101477.19;5056745;28;20053;-60
2021/10/19 04:57:56;;;;;;;13.57;8.52;;;;;;;18.22;83.45;101476.97;5046570;28;20041;-62
2021/10/19 05:00:23;;;;;;;16.70;7.82;;;;;;;18.25;82.90;101481.88;5057874;28;20048;-62
2021/10/19 05:02:57;;;;;;;14.00;7.72;;;;;;;18.05;83.28;101479.97;5041530;28;20071;-63
2021/10/19 05:05:25;;;;;;;11.18;7.28;;;;;;;17.87;84.62;101487.69;5058112;28;20045;-61
2021/10/19 05:07:53;;;;;;;14.07;8.18;;;;;;;18.12;84.12;101493.31;5058255;28;20064;-61
2021/10/19 05:10:21;;;;;;;13.43;8.68;;;;;;;18.29;82.66;101482.78;5057458;28;20055;-61
2021/10/19 05:12:49;;;;;;;15.50;8.18;;;;;;;18.27;82.98;101479.53;5056979;28;20053;-60
2021/10/19 05:15:17;;;;;;;12.02;7.93;;;;;;;18.36;82.21;101476.66;5057781;28;20053;-66
2021/10/19 05:17:44;;;;;;;13.45;8.00;;;;;;;18.22;82.79;101476.16;5057902;28;20060;-59
2021/10/19 05:20:11;;;;;;;13.73;8.55;;;;;;;17.87;84.10;101487.69;5056449;28;20124;-59
2021/10/19 05:22:39;;;;;;;14.88;8.05;;;;;;;18.05;83.96;101482.75;5056757;28;20045;-60
2021/10/19 05:25:08;;;;;;;16.92;8.73;;;;;;;18.02;83.94;101485.41;5058100;28;20500;-60
2021/10/19 05:27:37;;;;;;;19.13;9.82;;;;;;;18.12;83.42;101487.75;5058002;28;20575;-60
2021/10/19 05:30:05;;;;;;;21.05;9.50;;;;;;;18.08;83.70;101484.84;5057449;28;20057;-59
2021/10/19 05:32:33;;;;;;;14.63;8.38;;;;;;;17.99;83.76;101487.72;5057587;28;20041;-58
2021/10/19 05:35:00;;;;;;;15.48;8.35;;;;;;;18.08;83.46;101475.69;5057560;28;20050;-61
2021/10/19 05:37:27;;;;;;;12.48;8.23;;;;;;;18.07;83.18;101479.59;5036188;28;20053;-61
2021/10/19 05:39:57;;;;;;;15.87;10.37;;;;;;;18.27;82.79;101475.94;5068789;28;20052;-59
2021/10/19 05:42:44;;;;;;;17.77;9.88;;;;;;;18.29;82.52;101471.63;5067722;28;20052;-58
2021/10/19 05:45:11;;;;;;;15.90;9.93;;;;;;;18.35;82.08;101466.63;5072044;28;20361;-59
2021/10/19 05:47:41;;;;;;;15.75;8.50;;;;;;;18.07;82.84;101476.81;5056431;28;20049;-61
2021/10/19 05:50:09;;;;;;;14.27;9.07;;;;;;;18.09;83.16;101466.13;5056677;28;20412;-60
2021/10/19 05:52:37;;;;;;;12.88;8.57;;;;;;;18.03;83.18;101471.13;5036925;28;20045;-60
2021/10/19 05:55:04;;;;;;;18.10;9.45;;;;;;;18.14;83.00;101458.38;5048949;28;20053;-57
2021/10/19 05:57:31;;;;;;;13.48;7.97;;;;;;;18.05;83.54;101459.63;5037391;28;20072;-58
2021/10/19 05:59:59;;;;;;;16.40;8.77;;;;;;;18.09;82.91;101461.38;5042734;28;20044;-61
2021/10/19 06:02:26;;;;;;;17.08;9.15;;;;;;;17.92;83.30;101465.16;5055691;28;20049;-60
2021/10/19 06:04:53;;;;;;;15.38;9.02;;;;;;;17.97;84.26;101461.38;5056349;28;20060;-62
2021/10/19 06:07:21;;;;;;;12.18;7.85;;;;;;;18.13;83.99;101467.91;5056847;28;20067;-64
2021/10/19 06:09:48;;;;;;;13.82;7.93;;;;;;;18.37;82.95;101464.31;5052654;28;20049;-63
2021/10/19 06:12:16;;;;;;;13.77;7.70;;;;;;;18.39;82.77;101465.63;5054449;28;20037;-63
2021/10/19 06:14:43;;;;;;;12.63;6.95;;;;;;;18.39;82.45;101462.00;5052234;28;20534;-63
2021/10/19 06:17:11;;;;;;;14.48;7.80;;;;;;;18.34;82.34;101457.44;5055818;28;20048;-62
2021/10/19 06:19:38;;;;;;;16.75;8.10;;;;;;;18.04;83.13;101464.41;5055589;28;20049;-64
2021/10/19 06:22:05;;;;;;;13.25;8.00;;;;;;;17.78;84.81;101480.59;5053222;28;20041;-64
2021/10/19 06:24:33;;;;;;;16.73;8.02;;;;;;;17.94;83.80;101474.00;5054021;28;20523;-65
2021/10/19 06:27:00;;;;;;;15.95;8.20;;;;;;;17.84;83.88;101468.88;5054693;28;20064;-67
2021/10/19 06:29:29;;;;;;;14.55;7.68;;;;;;;17.68;84.97;101479.03;5054231;28;20033;-65
2021/10/19 06:31:57;;;;;;;23.33;13.35;;;;;;;17.83;85.30;101480.38;5049327;28;20045;-65
2021/10/19 06:34:24;;;;;;;15.27;9.23;;;;;;;17.75;85.57;101481.25;5053488;28;20064;-64
2021/10/19 06:36:51;;;;;;;20.60;8.27;;;;;;;17.86;85.88;101474.94;5054792;28;20044;-64
2021/10/19 06:39:19;;;;;;;14.63;7.82;;;;;;;17.94;85.46;101479.59;5053481;28;20061;-64
2021/10/19 06:41:46;;;;;;;11.48;7.82;;;;;;;18.10;84.21;101488.09;5054149;28;20052;-64
2021/10/19 06:44:15;;;;;;;11.77;7.75;;;;;;;18.22;83.39;101481.75;5052600;28;20052;-63
2021/10/19 06:47:02;;;;;;;15.95;7.80;;;;;;;17.92;84.31;101481.91;5053131;28;20059;-64
2021/10/19 06:49:29;;;;;;;15.68;8.38;;;;;;;17.69;85.27;101491.81;5048572;28;20624;-65
2021/10/19 06:51:57;;;;;;;14.60;7.95;;;;;;;17.58;86.07;101487.00;5065634;28;20619;-64
2021/10/19 06:54:24;;;;;;;14.98;7.90;;;;;;;17.63;85.54;101495.97;5053056;28;20065;-65
2021/10/19 06:56:51;;;;;;;16.27;9.18;;;;;;;17.87;84.67;101498.84;5042474;28;20052;-65
2021/10/19 06:59:18;;;;;;;17.63;8.18;;;;;;;17.88;83.12;101499.66;5055758;28;20057;-66
2021/10/19 07:01:46;;;;;;;14.20;8.15;;;;;;;17.86;83.17;101497.22;5054661;28;20040;-65
2021/10/19 07:04:13;;;;;;;15.85;8.50;;;;;;;17.88;83.08;101494.91;5055908;28;20048;-65
2021/10/19 07:06:40;;;;;;;14.38;8.02;;;;;;;17.77;82.93;101498.44;5054808;28;20041;-65
2021/10/19 07:09:08;;;;;;;17.08;9.23;;;;;;;17.57;84.11;101499.31;5055139;28;20057;-67
2021/10/19 07:11:35;;;;;;;15.23;8.75;;;;;;;17.64;83.78;101505.94;5053102;28;20048;-65
2021/10/19 07:14:03;;;;;;;16.83;8.75;;;;;;;17.77;82.85;101504.84;5047390;28;20045;-65
2021/10/19 07:16:30;;;;;;;16.15;8.30;;;;;;;17.94;82.09;101503.84;5047943;28;20057;-65
2021/10/19 07:18:58;;;;;;;18.60;8.48;;;;;;;17.91;81.74;101498.97;5055307;28;20064;-66
2021/10/19 07:21:25;;;;;;;12.05;7.90;;;;;;;17.97;81.38;101497.59;5050629;28;20154;-65
2021/10/19 07:23:52;;;;;;;16.30;8.90;;;;;;;17.92;80.74;101506.19;5052858;28;20033;-66
2021/10/19 07:26:19;;;;;;;15.55;8.35;;;;;;;17.82;81.58;101501.84;5054108;28;20068;-64
2021/10/19 07:28:46;;;;;;;11.80;8.30;;;;;;;17.82;81.40;101498.22;5055250;28;20057;-66
2021/10/19 07:31:14;;;;;;;13.35;8.18;;;;;;;17.87;80.57;101510.00;5054345;28;20056;-66
2021/10/19 07:33:41;;;;;;;14.93;8.07;;;;;;;17.98;80.34;101511.19;5049196;28;20045;-67
2021/10/19 07:36:11;;;;;;;;;;;;;;;18.04;79.96;101516.56;5053515;28;20057;-61
2021/10/19 07:38:39;;;;;;;14.48;8.00;;;;;;;18.09;79.55;101514.38;5053069;28;20510;-63
2021/10/19 07:41:07;;;;;;;14.20;8.38;;;;;;;18.18;78.77;101514.25;5059636;28;20041;-64
2021/10/19 07:43:34;;;;;;;16.52;9.07;;;;;;;18.14;79.72;101518.91;5052834;28;20045;-63
2021/10/19 07:46:01;;;;;;;15.60;8.43;;;;;;;18.26;78.98;101519.75;5053575;28;20045;-64
2021/10/19 07:48:29;;;;;;;12.82;8.23;;;;;;;18.20;78.31;101523.09;5055031;28;20056;-64
2021/10/19 07:50:56;;;;;;;16.45;7.78;;;;;;;18.24;78.00;101521.25;5053760;28;20045;-63
2021/10/19 07:53:24;;;;;;;16.60;8.38;;;;;;;18.15;78.43;101514.97;5052823;28;20132;-63
2021/10/19 07:55:53;;;;;;;17.27;7.97;;;;;;;18.20;77.70;101523.91;5053375;28;20606;-63
2021/10/19 07:58:20;;;;;;;13.02;8.13;;;;;;;18.30;77.26;101520.69;5054557;28;20060;-63
2021/10/19 08:00:47;;;;;;;12.85;7.80;;;;;;;18.34;76.75;101516.03;5054141;28;20523;-64
2021/10/19 08:03:14;;;;;;;11.20;8.07;;;;;;;18.42;76.11;101525.50;5053179;28;20060;-63
2021/10/19 08:05:42;;;;;;;13.10;7.80;;;;;;;18.42;75.87;101520.75;5054819;28;20045;-63
2021/10/19 08:08:12;;;;;;;13.15;8.10;;;;;;;18.55;75.71;101529.94;5054316;28;20049;-64
2021/10/19 08:10:41;;;;;;;;;;;;;;;18.46;75.57;101526.44;5051610;28;20045;-64
2021/10/19 08:13:09;;;;;;;17.75;8.13;;;;;;;18.41;75.81;101537.81;5053266;28;19924;-63
2021/10/19 08:15:38;;;;;;;18.52;8.52;;;;;;;18.50;75.59;101539.34;5053860;28;20540;-64
2021/10/19 08:18:06;;;;;;;14.38;8.07;;;;;;;18.56;75.48;101537.13;5053410;28;20045;-63
2021/10/19 08:20:34;;;;;;;13.20;7.97;;;;;;;18.71;74.97;101542.84;5055328;28;20052;-63
2021/10/19 08:23:02;;;;;;;18.30;7.50;;;;;;;18.63;75.19;101542.97;5055833;28;20052;-67
2021/10/19 08:25:30;;;;;;;14.82;8.13;;;;;;;18.58;75.52;101552.38;5058541;28;20060;-64
2021/10/19 08:27:58;;;;;;;14.55;7.68;;;;;;;18.55;75.64;101550.28;5070757;28;20045;-65
2021/10/19 08:30:25;;;;;;;19.80;7.57;;;;;;;18.64;75.75;101555.75;5057684;28;20056;-66
2021/10/19 08:32:53;;;;;;;13.40;7.78;;;;;;;18.70;75.44;101559.94;5057977;28;20428;-65
2021/10/19 08:35:22;;;;;;;11.20;8.15;;;;;;;18.49;76.21;101553.63;5058225;28;20053;-65
2021/10/19 08:37:52;;;;;;;13.38;8.05;;;;;;;18.85;74.92;101564.84;5073665;28;20083;-64
2021/10/19 08:40:20;;;;;;;18.85;8.00;;;;;;;18.75;75.67;101563.31;5062855;28;20056;-66
2021/10/19 08:42:51;;;;;;;14.27;8.02;;;;;;;18.84;75.86;101566.00;5051239;28;20049;-64
2021/10/19 08:45:19;;;;;;;12.38;8.02;;;;;;;18.63;76.15;101565.28;5061932;28;20049;-64
2021/10/19 08:47:48;;;;;;;14.07;7.97;;;;;;;18.73;76.44;101564.81;5057402;28;20044;-63
2021/10/19 08:50:18;;;;;;;17.85;8.38;;;;;;;18.73;76.31;101557.28;5057131;28;20057;-65
2021/10/19 08:52:46;;;;;;;11.82;8.52;;;;;;;18.69;76.44;101558.34;5057046;28;20040;-64
2021/10/19 08:55:14;;;;;;;13.00;8.50;;;;;;;18.72;76.46;101563.22;5057332;28;20049;-63
2021/10/19 08:57:41;;;;;;;19.25;9.23;;;;;;;18.72;76.23;101564.03;5039471;28;20068;-63
2021/10/19 09:00:10;;;;;;;17.73;8.50;;;;;;;18.71;76.73;101562.38;5057887;28;20740;-63
2021/10/19 09:02:42;;;;;;;15.48;7.68;;;;;;;18.61;75.93;101550.88;5057025;28;20048;-64
2021/10/19 09:05:17;;;;;;;12.02;7.97;;;;;;;18.60;76.33;101546.47;5053600;28;20057;-63
2021/10/19 09:07:59;;;;;;;13.05;7.22;;;;;;;18.58;76.50;101555.19;5055081;28;20493;-64
2021/10/19 09:10:31;;;;;;;12.38;7.00;;;;;;;18.49;77.18;101546.09;5066892;28;20056;-64
2021/10/19 09:13:01;;;;;;;15.85;7.50;;;;;;;18.48;76.69;101546.44;5057197;28;20056;-64
2021/10/19 09:15:31;;;;;;;14.45;8.07;;;;;;;18.59;76.51;101537.25;5057384;28;20052;-63
2021/10/19 09:18:06;;;;;;;;;;;;;;;18.60;76.62;101540.88;5054447;28;20064;-64
2021/10/19 09:20:39;;;;;;;17.65;7.20;;;;;;;18.58;76.28;101545.97;5037569;28;19921;-64
2021/10/19 09:23:08;;;;;;;17.27;6.72;;;;;;;18.73;75.98;101543.31;5056803;28;20052;-64
2021/10/19 09:25:38;;;;;;;13.23;6.80;;;;;;;18.92;75.40;101539.94;5057111;28;20751;-63
2021/10/19 09:28:08;;;;;;;14.25;6.72;;;;;;;19.53;73.13;101546.28;5057018;28;20049;-64
2021/10/19 09:30:36;;;;;;;;;;;;;;;19.11;74.03;101542.16;5055640;28;20057;-63
2021/10/19 09:33:06;;;;;;;13.18;7.22;;;;;;;19.35;73.62;101540.19;5056692;28;20423;-64
2021/10/19 09:35:34;;;;;;;14.32;7.15;;;;;;;19.18;74.18;101542.38;5052854;28;20048;-63
2021/10/19 09:38:09;;;;;;;15.70;7.32;;;;;;;19.05;75.13;101542.41;5057295;28;20053;-65
2021/10/19 09:40:46;;;;;;;12.18;6.53;;;;;;;19.21;74.79;101539.69;5059525;28;20068;-65
2021/10/19 09:43:16;;;;;;;12.35;7.25;;;;;;;19.21;74.48;101548.09;5055724;28;20052;-64
2021/10/19 09:45:46;;;;;;;12.93;7.15;;;;;;;19.22;74.29;101546.91;5061919;28;20045;-64
2021/10/19 09:48:15;;;;;;;11.63;7.50;;;;;;;19.23;74.45;101542.94;5055826;28;20053;-62
2021/10/19 09:50:43;;;;;;;10.52;6.47;;;;;;;19.42;74.06;101545.94;5055402;28;20141;-64
2021/10/19 09:53:12;;;;;;;15.50;7.68;;;;;;;19.49;73.29;101548.16;5054156;28;20060;-63
2021/10/19 09:55:41;;;;;;;10.98;6.25;;;;;;;19.76;72.32;101548.19;5054384;28;20055;-63
2021/10/19 09:58:09;;;;;;;17.88;6.78;;;;;;;19.50;72.88;101550.59;5056219;28;20052;-64
2021/10/19 10:00:37;;;;;;;10.75;6.47;;;;;;;19.40;73.37;101547.47;5053826;28;20040;-64
2021/10/19 10:03:05;;;;;;;10.80;6.03;;;;;;;19.49;72.53;101542.56;5052470;28;20049;-64
2021/10/19 10:05:33;;;;;;;10.82;6.70;;;;;;;19.75;71.76;101542.97;5054329;28;20049;-64
2021/10/19 10:08:01;;;;;;;10.45;6.45;;;;;;;19.64;72.34;101545.44;5055897;28;20065;-64
2021/10/19 10:10:29;;;;;;;11.30;6.72;;;;;;;19.66;72.36;101533.91;5051469;28;20048;-63
2021/10/19 10:13:07;;;;;;;10.98;7.07;;;;;;;19.87;71.83;101531.72;5035621;28;20056;-63
2021/10/19 10:15:35;;;;;;;13.23;6.88;;;;;;;19.66;72.39;101528.31;5054448;28;20068;-63
2021/10/19 10:18:09;;;;;;;12.07;6.22;;;;;;;19.62;71.15;101533.78;5050443;28;20048;-63
2021/10/19 10:20:38;;;;;;;8.30;6.13;;;;;;;19.76;71.48;101537.00;5052899;28;20419;-62
2021/10/19 10:23:27;;;;;;;11.68;6.13;;;;;;;19.65;71.93;101537.88;5062187;28;20057;-63
2021/10/19 10:25:57;;;;;;;7.90;6.32;;;;;;;19.77;71.55;101521.84;5054073;28;20052;-64
2021/10/19 10:28:26;;;;;;;14.23;6.53;;;;;;;19.66;71.64;101526.34;5048893;28;20056;-65
2021/10/19 10:30:59;;;;;;;10.00;6.32;;;;;;;19.83;71.23;101528.00;5054869;28;20041;-65
2021/10/19 10:33:39;;;;;;;12.50;6.53;;;;;;;20.23;69.92;101537.16;5054994;28;20052;-64
2021/10/19 10:36:11;;;;;;;12.10;6.32;;;;;;;20.30;68.85;101519.75;5050064;28;20053;-63
2021/10/19 10:38:53;;;;;;;10.70;6.43;;;;;;;20.58;67.96;101524.09;5055240;28;20033;-64
2021/10/19 10:41:21;;;;;;;8.95;6.18;;;;;;;20.75;66.90;101508.91;5068021;28;20063;-64
2021/10/19 10:43:59;;;;;;;11.95;6.88;;;;;;;20.21;68.57;101519.13;5053621;28;20453;-63
2021/10/19 10:46:27;;;;;;;13.65;7.90;;;;;;;20.05;68.41;101510.63;5052007;28;20064;-63
2021/10/19 10:48:56;;;;;;;15.13;8.85;;;;;;;20.06;68.56;101507.50;5069349;28;20067;-62
2021/10/19 10:51:31;;;;;;;13.23;8.18;;;;;;;20.06;68.27;101507.50;5055547;28;20059;-63
2021/10/19 10:53:59;;;;;;;12.20;8.40;;;;;;;20.25;67.59;101509.63;5037827;28;20373;-64
2021/10/19 10:56:27;;;;;;;9.80;7.15;;;;;;;20.59;65.92;101497.72;5047740;28;20044;-64
2021/10/19 10:58:55;;;;;;;10.07;6.65;;;;;;;20.47;65.89;101480.22;5055393;28;20644;-63
2021/10/19 11:01:27;;;;;;;12.95;7.00;;;;;;;20.69;65.09;101486.00;5055423;28;20055;-63
2021/10/19 11:04:09;;;;;;;11.55;7.18;;;;;;;20.68;65.25;101486.34;5055541;28;20060;-64
2021/10/19 11:06:39;;;;;;;12.82;7.57;;;;;;;20.91;63.97;101478.91;5055713;28;20053;-63
2021/10/19 11:09:11;;;;;;;11.73;7.03;;;;;;;20.83;64.02;101477.13;5051492;28;20057;-63
2021/10/19 11:11:41;;;;;;;13.50;6.85;;;;;;;20.93;64.21;101480.16;5054311;28;20473;-65
2021/10/19 11:14:10;;;;;;;11.02;6.80;;;;;;;20.97;63.83;101477.44;5054856;28;20052;-63
2021/10/19 11:16:44;;;;;;;12.13;6.18;;;;;;;20.92;63.60;101475.72;5055570;28;20067;-62
2021/10/19 11:19:23;;;;;;;10.70;6.88;;;;;;;20.97;63.07;101463.44;5054852;28;20611;-63
2021/10/19 11:21:53;;;;;;;7.95;6.15;;;;;;;20.82;63.16;101455.88;5054982;28;20404;-62
2021/10/19 11:24:22;;;;;;;9.63;5.95;;;;;;;21.06;62.83;101450.88;5054513;28;20052;-63
2021/10/19 11:26:50;;;;;;;11.43;6.28;;;;;;;21.04;62.66;101447.63;5052731;28;20063;-63